Terminal Aerodrome Forecast
Issued by NWS St Louis, MO

Home | Current Version | Previous Version | Text Only | Print | Product List | Glossary On
Versions: 1 2 3 4 5 6 7 8 9 10 11 12 13 14 15 16 17 18 19 20 21 22 23 24
000
FTUS43 KLSX 150734 AAA
TAFCOU
TAF AMD
KCOU 150734Z 1508/1606 09005KT 4SM -FZRA BR OVC006
     FM151200 08006KT 2SM -FZRA BR OVC006
     FM152000 09006KT 2SM -RA BR OVC006
     FM160000 09007KT 2SM BR OVC006=

USA.gov is the U.S. government's official web portal to all federal, state and local government web resources and services.